createdAt,value
2019-03-24T00:01:41.914Z,73.35
2019-03-24T00:04:13.995Z,73.42
2019-03-24T00:06:45.998Z,73.23
2019-03-24T00:09:18.014Z,73.18
2019-03-24T00:11:50.063Z,73.52
2019-03-24T00:14:22.017Z,73.74
2019-03-24T00:16:57.175Z,73.06
2019-03-24T00:19:29.092Z,73.22
2019-03-24T00:22:01.061Z,73.08
2019-03-24T00:24:33.076Z,73.26
2019-03-24T00:27:05.152Z,73.57
2019-03-24T00:29:37.126Z,73.70
2019-03-24T00:32:09.243Z,73.56
2019-03-24T00:34:41.295Z,73.82
2019-03-24T00:37:13.286Z,73.94
2019-03-24T00:39:45.284Z,74.46
2019-03-24T00:42:17.318Z,74.12
2019-03-24T00:44:49.317Z,74.84
2019-03-24T00:47:21.403Z,74.15
2019-03-24T00:49:53.414Z,74.29
2019-03-24T00:52:25.473Z,74.18
2019-03-24T00:54:57.383Z,74.36
2019-03-24T00:57:29.442Z,74.45
2019-03-24T01:00:01.487Z,75.13
2019-03-24T01:02:33.551Z,74.92
2019-03-24T01:05:06.136Z,74.94
2019-03-24T01:07:38.135Z,75.24
2019-03-24T01:10:10.644Z,74.76
2019-03-24T01:12:42.778Z,75.37
2019-03-24T01:15:15.024Z,75.55
2019-03-24T01:17:47.062Z,75.38
2019-03-24T01:20:19.962Z,75.35
2019-03-24T01:22:51.957Z,75.73
2019-03-24T01:25:24.195Z,76.08
2019-03-24T01:27:56.147Z,76.69
2019-03-24T01:30:28.328Z,76.55
2019-03-24T01:33:00.412Z,76.40
2019-03-24T01:35:32.435Z,76.33
2019-03-24T01:38:04.481Z,76.73
2019-03-24T01:40:36.722Z,76.63
2019-03-24T01:43:08.802Z,76.57
2019-03-24T01:45:40.828Z,76.37
2019-03-24T01:48:13.280Z,76.85
2019-03-24T01:50:45.188Z,76.84
2019-03-24T01:53:17.256Z,77.31
2019-03-24T01:55:49.298Z,77.11
2019-03-24T01:58:21.361Z,77.23
2019-03-24T02:00:54.101Z,77.26
2019-03-24T02:03:26.273Z,77.51
2019-03-24T02:05:58.367Z,77.63
2019-03-24T02:08:30.469Z,77.63
2019-03-24T02:11:02.515Z,78.01
2019-03-24T02:13:34.596Z,78.31
2019-03-24T02:16:09.599Z,77.49
2019-03-24T02:18:40.368Z,77.43
2019-03-24T02:21:12.434Z,77.16
2019-03-24T02:23:44.489Z,77.32
2019-03-24T02:26:16.521Z,77.32
2019-03-24T02:28:48.462Z,77.08
2019-03-24T02:31:20.548Z,77.15
2019-03-24T02:33:52.626Z,77.67
2019-03-24T02:36:24.684Z,77.69
2019-03-24T02:38:56.753Z,77.91
2019-03-24T02:41:28.810Z,78.16
2019-03-24T02:44:00.790Z,77.87
2019-03-24T02:46:32.947Z,78.02
2019-03-24T02:49:04.959Z,77.80
2019-03-24T02:51:36.984Z,77.89
2019-03-24T02:54:09.072Z,78.05
2019-03-24T02:56:41.151Z,77.49
2019-03-24T02:59:13.255Z,76.18
2019-03-24T03:01:45.280Z,76.14
2019-03-24T03:04:17.296Z,75.96
2019-03-24T03:06:49.382Z,75.62
2019-03-24T03:09:21.518Z,75.81
2019-03-24T03:11:53.635Z,76.13
2019-03-24T03:14:25.756Z,76.25
2019-03-24T03:16:57.735Z,75.66
2019-03-24T03:19:29.875Z,74.72
2019-03-24T03:22:01.942Z,75.17
2019-03-24T03:24:34.017Z,74.90
2019-03-24T03:27:06.278Z,74.94
2019-03-24T03:29:38.327Z,74.73
2019-03-24T03:32:10.371Z,74.52
2019-03-24T03:34:42.488Z,74.41
2019-03-24T03:37:14.548Z,74.72
2019-03-24T03:39:46.510Z,74.32
2019-03-24T03:42:18.630Z,74.16
2019-03-24T03:44:50.632Z,74.56
2019-03-24T03:47:22.696Z,74.04
2019-03-24T03:49:54.677Z,74.32
2019-03-24T03:52:26.712Z,74.77
2019-03-24T03:54:58.810Z,74.34
2019-03-24T03:57:30.899Z,74.06
2019-03-24T04:00:02.957Z,74.73
2019-03-24T04:02:35.089Z,74.81
2019-03-24T04:05:08.026Z,74.84
2019-03-24T04:07:40.099Z,75.29
2019-03-24T04:10:12.459Z,75.35
2019-03-24T04:12:44.511Z,75.24
2019-03-24T04:15:16.555Z,75.40
2019-03-24T04:17:48.600Z,75.66
2019-03-24T04:20:20.648Z,75.99
2019-03-24T04:22:52.734Z,76.24
2019-03-24T04:25:24.770Z,76.33
2019-03-24T04:27:56.838Z,76.61
2019-03-24T04:30:28.889Z,76.79
2019-03-24T04:33:00.863Z,76.85
2019-03-24T04:35:32.878Z,77.42
2019-03-24T04:38:04.966Z,77.35
2019-03-24T04:40:36.998Z,77.88
2019-03-24T04:43:08.986Z,78.05
2019-03-24T04:45:41.099Z,78.46
2019-03-24T04:48:13.154Z,78.80
2019-03-24T04:50:45.160Z,79.13
2019-03-24T04:53:17.207Z,79.96
2019-03-24T04:55:49.264Z,80.10
2019-03-24T04:58:21.301Z,79.63
2019-03-24T05:00:53.292Z,78.88
2019-03-24T05:03:25.395Z,79.18
2019-03-24T05:05:57.889Z,78.97
2019-03-24T05:08:31.281Z,79.58
2019-03-24T05:11:03.304Z,79.88
2019-03-24T05:13:35.412Z,79.83
2019-03-24T05:16:07.444Z,80.33
2019-03-24T05:18:39.612Z,80.39
2019-03-24T05:21:11.606Z,80.03
2019-03-24T05:23:45.953Z,80.47
2019-03-24T05:26:17.379Z,80.49
2019-03-24T05:28:49.453Z,80.56
2019-03-24T05:31:21.475Z,80.80
2019-03-24T05:33:53.511Z,80.70
2019-03-24T05:36:25.520Z,80.42
2019-03-24T05:38:57.716Z,80.53
2019-03-24T05:41:29.759Z,80.74
2019-03-24T05:44:01.803Z,80.66
2019-03-24T05:46:33.883Z,80.82
2019-03-24T05:49:05.867Z,81.01
2019-03-24T05:51:37.883Z,80.83
2019-03-24T05:54:09.816Z,80.96
2019-03-24T05:56:41.909Z,80.99
2019-03-24T05:59:13.895Z,80.85
2019-03-24T06:01:46.016Z,80.90
2019-03-24T06:04:18.087Z,80.18
2019-03-24T06:06:50.144Z,80.41
2019-03-24T06:09:22.209Z,80.23
2019-03-24T06:11:54.299Z,80.48
2019-03-24T06:14:26.350Z,80.54
2019-03-24T06:16:58.377Z,80.89
2019-03-24T06:19:30.864Z,80.67
2019-03-24T06:22:02.899Z,80.45
2019-03-24T06:24:34.870Z,80.43
2019-03-24T06:27:06.923Z,80.55
2019-03-24T06:29:38.922Z,80.25
2019-03-24T06:32:10.873Z,80.27
2019-03-24T06:34:42.962Z,80.44
2019-03-24T06:37:14.981Z,80.55
2019-03-24T06:39:47.046Z,80.49
2019-03-24T06:42:19.092Z,79.58
2019-03-24T06:44:51.049Z,79.29
2019-03-24T06:47:23.141Z,78.48
2019-03-24T06:49:55.206Z,78.38
2019-03-24T06:52:27.302Z,77.89
2019-03-24T06:54:59.354Z,77.64
2019-03-24T06:57:32.438Z,76.32
2019-03-24T07:00:04.536Z,71.77
2019-03-24T07:02:36.639Z,68.68
2019-03-24T07:05:12.196Z,65.75
2019-03-24T07:07:44.354Z,62.97
2019-03-24T07:10:16.503Z,61.33
2019-03-24T07:12:48.618Z,61.63
2019-03-24T07:15:20.682Z,60.52
2019-03-24T07:17:52.762Z,58.03
2019-03-24T07:20:24.848Z,55.68
2019-03-24T07:22:56.914Z,56.24
2019-03-24T07:25:28.948Z,55.42
2019-03-24T07:28:01.031Z,55.79
2019-03-24T07:30:33.206Z,56.00
2019-03-24T07:33:15.255Z,53.51
2019-03-24T07:35:47.393Z,53.30
2019-03-24T07:38:19.511Z,53.94
2019-03-24T07:40:51.586Z,52.76
2019-03-24T07:43:23.627Z,51.47
2019-03-24T07:45:55.647Z,50.15
2019-03-24T07:48:27.590Z,50.96
2019-03-24T07:50:59.552Z,50.68
2019-03-24T07:53:31.754Z,49.37
2019-03-24T07:56:04.070Z,48.52
2019-03-24T07:58:36.073Z,49.74
2019-03-24T08:01:08.187Z,48.09
2019-03-24T08:03:40.264Z,47.46
2019-03-24T08:06:12.347Z,48.40
2019-03-24T08:08:44.679Z,46.09
2019-03-24T08:11:16.870Z,46.37
2019-03-24T08:13:53.817Z,46.56
2019-03-24T08:16:22.722Z,47.08
2019-03-24T08:18:54.777Z,46.95
2019-03-24T08:21:26.764Z,45.97
2019-03-24T08:23:58.785Z,46.53
2019-03-24T08:26:30.835Z,46.47
2019-03-24T08:29:02.844Z,47.55
2019-03-24T08:31:34.952Z,50.27
2019-03-24T08:34:07.181Z,51.78
2019-03-24T08:36:39.168Z,51.50
2019-03-24T08:39:11.252Z,51.69
2019-03-24T08:41:43.455Z,49.07
2019-03-24T08:44:15.571Z,51.15
2019-03-24T08:46:47.691Z,49.88
2019-03-24T08:49:19.710Z,49.36
2019-03-24T08:51:51.849Z,48.54
2019-03-24T08:54:23.857Z,47.83
2019-03-24T08:56:56.008Z,47.41
2019-03-24T08:59:28.057Z,48.26
2019-03-24T09:02:00.149Z,46.92
2019-03-24T09:04:32.286Z,47.66
2019-03-24T09:07:04.350Z,46.26
2019-03-24T09:09:36.455Z,46.52
2019-03-24T09:12:08.536Z,46.90
2019-03-24T09:14:40.648Z,44.22
2019-03-24T09:17:12.718Z,44.12
2019-03-24T09:19:44.839Z,44.16
2019-03-24T09:22:16.910Z,44.20
2019-03-24T09:24:49.016Z,44.02
2019-03-24T09:27:21.075Z,44.48
2019-03-24T09:29:53.225Z,44.54
2019-03-24T09:32:25.391Z,45.23
2019-03-24T09:34:57.505Z,47.06
2019-03-24T09:37:29.557Z,48.01
2019-03-24T09:40:01.609Z,46.84
2019-03-24T09:42:33.669Z,48.52
2019-03-24T09:45:06.069Z,50.77
2019-03-24T09:47:38.172Z,54.70
2019-03-24T09:50:10.470Z,57.45
2019-03-24T09:52:42.507Z,57.65
2019-03-24T09:55:14.618Z,58.27
2019-03-24T09:57:48.853Z,58.64
2019-03-24T10:00:20.631Z,58.62
2019-03-24T10:02:52.761Z,57.44
2019-03-24T10:05:24.801Z,56.72
2019-03-24T10:07:57.030Z,57.21
2019-03-24T10:10:29.097Z,56.04
2019-03-24T10:13:01.285Z,54.93
2019-03-24T10:15:33.343Z,56.07
2019-03-24T10:18:08.557Z,57.68
2019-03-24T10:20:40.591Z,53.32
2019-03-24T10:23:12.670Z,55.37
2019-03-24T10:25:45.744Z,54.26
2019-03-24T10:28:17.803Z,56.15
2019-03-24T10:30:50.307Z,56.29
2019-03-24T10:33:22.406Z,53.77
2019-03-24T10:35:59.713Z,53.51
2019-03-24T10:38:31.834Z,53.23
2019-03-24T10:41:04.051Z,52.43
2019-03-24T10:43:36.113Z,53.27
2019-03-24T10:46:08.576Z,51.89
2019-03-24T10:48:40.819Z,53.05
2019-03-24T10:51:13.029Z,51.54
2019-03-24T10:53:45.304Z,52.21
2019-03-24T10:56:17.520Z,51.35
2019-03-24T10:58:49.617Z,50.70
2019-03-24T11:01:21.786Z,52.08
2019-03-24T11:03:53.874Z,49.35
2019-03-24T11:06:26.094Z,49.48
2019-03-24T11:08:58.216Z,47.96
2019-03-24T11:11:30.742Z,50.10
2019-03-24T11:14:02.883Z,48.90
2019-03-24T11:16:34.964Z,47.88
2019-03-24T11:19:07.435Z,47.59
2019-03-24T11:21:39.700Z,44.70
2019-03-24T11:24:11.868Z,46.21
2019-03-24T11:26:44.096Z,45.82
2019-03-24T11:29:17.150Z,47.80
2019-03-24T11:31:49.446Z,49.40
2019-03-24T11:34:21.769Z,47.33
2019-03-24T11:36:54.963Z,48.18
2019-03-24T11:39:27.236Z,47.13
2019-03-24T11:41:59.994Z,48.24
2019-03-24T11:44:34.720Z,50.03
2019-03-24T11:47:06.727Z,48.09
2019-03-24T11:49:45.916Z,46.20
2019-03-24T11:52:13.346Z,50.26
2019-03-24T11:54:45.582Z,47.34
2019-03-24T11:57:18.147Z,47.76
2019-03-24T11:59:51.000Z,45.79
2019-03-24T12:02:23.417Z,46.85
2019-03-24T12:04:55.578Z,47.72
2019-03-24T12:07:28.462Z,43.27
2019-03-24T12:10:01.166Z,38.69
2019-03-24T12:12:33.581Z,39.54
2019-03-24T12:15:06.601Z,41.24
2019-03-24T12:17:39.388Z,35.41
2019-03-24T12:20:12.082Z,38.42
2019-03-24T12:22:47.023Z,36.42
2019-03-24T12:25:23.297Z,37.71
2019-03-24T12:27:56.016Z,38.64
2019-03-24T12:30:36.613Z,40.47
2019-03-24T12:33:09.307Z,39.61
2019-03-24T12:35:45.443Z,39.32
2019-03-24T12:38:20.753Z,38.03
2019-03-24T12:40:57.510Z,41.12
2019-03-24T12:43:30.409Z,37.68
2019-03-24T12:46:05.519Z,37.82
2019-03-24T12:48:39.878Z,38.00
2019-03-24T12:51:23.596Z,35.70
2019-03-24T12:53:59.170Z,36.54
2019-03-24T12:56:34.233Z,36.54
2019-03-24T12:59:09.927Z,37.42
2019-03-24T13:01:42.180Z,35.77
2019-03-24T13:04:14.622Z,35.91
2019-03-24T13:06:58.538Z,39.44
2019-03-24T13:09:33.554Z,40.57
2019-03-24T13:12:06.732Z,42.15
2019-03-24T13:14:43.267Z,43.11
2019-03-24T13:17:17.113Z,42.97
2019-03-24T13:19:52.925Z,44.56
2019-03-24T13:22:25.170Z,45.68
2019-03-24T13:25:00.084Z,47.23
2019-03-24T13:27:32.438Z,48.32
2019-03-24T13:30:07.713Z,47.41
2019-03-24T13:32:42.150Z,46.16
2019-03-24T13:35:24.346Z,47.93
2019-03-24T13:38:03.278Z,46.55
2019-03-24T13:43:55.399Z,44.85
2019-03-24T13:46:29.012Z,43.47
2019-03-24T13:49:02.055Z,46.66
2019-03-24T13:51:35.134Z,47.29
2019-03-24T13:54:07.978Z,45.94
2019-03-24T13:56:40.457Z,45.31
2019-03-24T13:59:12.870Z,47.27
2019-03-24T14:01:45.339Z,44.92
2019-03-24T14:04:17.966Z,44.94
2019-03-24T14:06:53.875Z,41.82
2019-03-24T14:09:26.252Z,42.63
2019-03-24T14:11:58.767Z,42.82
2019-03-24T14:14:31.401Z,46.01
2019-03-24T14:17:03.716Z,44.74
2019-03-24T14:19:35.871Z,46.81
2019-03-24T14:22:10.821Z,44.69
2019-03-24T14:24:43.641Z,43.52
2019-03-24T14:27:16.634Z,45.86
2019-03-24T14:29:49.196Z,44.71
2019-03-24T14:32:23.531Z,46.81
2019-03-24T14:34:56.062Z,44.02
2019-03-24T14:37:37.344Z,44.05
2019-03-24T14:40:10.247Z,42.90
2019-03-24T14:42:47.857Z,41.02
2019-03-24T14:45:31.435Z,42.30
2019-03-24T14:48:04.223Z,42.35
2019-03-24T14:50:37.082Z,43.42
2019-03-24T14:53:10.939Z,42.80
2019-03-24T14:55:44.318Z,42.81
2019-03-24T14:58:18.718Z,43.25
2019-03-24T15:00:51.439Z,41.67
2019-03-24T15:03:24.025Z,41.60
2019-03-24T15:05:56.603Z,45.71
2019-03-24T15:08:29.695Z,43.49
2019-03-24T15:11:02.529Z,43.71
2019-03-24T15:13:35.416Z,46.15
2019-03-24T15:16:09.696Z,45.07
2019-03-24T15:18:49.218Z,44.11
2019-03-24T15:21:26.327Z,43.13
2019-03-24T15:23:58.501Z,42.78
2019-03-24T15:26:30.933Z,46.49
2019-03-24T15:29:03.115Z,46.43
2019-03-24T15:31:35.733Z,46.54
2019-03-24T15:34:07.893Z,45.93
2019-03-24T15:36:40.167Z,46.75
2019-03-24T15:39:13.467Z,44.34
2019-03-24T15:41:45.701Z,43.85
2019-03-24T15:44:17.866Z,44.30
2019-03-24T15:46:50.148Z,44.42
2019-03-24T15:49:22.398Z,44.67
2019-03-24T15:51:54.730Z,46.00
2019-03-24T15:54:27.345Z,45.44
2019-03-24T15:56:59.585Z,45.43
2019-03-24T15:59:31.880Z,44.25
2019-03-24T16:02:04.277Z,44.90
2019-03-24T16:04:36.725Z,43.57
2019-03-24T16:07:08.815Z,42.57
2019-03-24T16:09:41.009Z,44.02
2019-03-24T16:12:13.208Z,42.62
2019-03-24T16:14:45.607Z,41.24
2019-03-24T16:17:17.784Z,41.74
2019-03-24T16:19:50.132Z,39.95
2019-03-24T16:22:22.303Z,40.92
2019-03-24T16:24:54.777Z,40.61
2019-03-24T16:27:26.979Z,39.29
2019-03-24T16:29:59.261Z,39.36
2019-03-24T16:32:31.539Z,39.51
2019-03-24T16:35:03.710Z,39.28
2019-03-24T16:37:36.115Z,37.52
2019-03-24T16:40:08.564Z,36.62
2019-03-24T16:42:41.138Z,37.34
2019-03-24T16:45:15.510Z,39.15
2019-03-24T16:47:47.552Z,38.71
2019-03-24T16:50:22.418Z,38.81
2019-03-24T16:52:54.867Z,40.17
2019-03-24T16:55:31.248Z,39.51
2019-03-24T16:58:05.883Z,41.51
2019-03-24T17:00:38.710Z,42.04
2019-03-24T17:03:11.686Z,42.07
2019-03-24T17:05:44.958Z,42.86
2019-03-24T17:08:18.392Z,43.52
2019-03-24T17:11:05.091Z,46.29
2019-03-24T17:13:27.777Z,44.65
2019-03-24T17:16:02.473Z,45.29
2019-03-24T17:18:36.109Z,44.57
2019-03-24T17:21:08.667Z,45.30
2019-03-24T17:23:43.707Z,46.24
2019-03-24T17:26:18.295Z,47.78
2019-03-24T17:28:50.592Z,48.21
2019-03-24T17:31:23.060Z,48.07
2019-03-24T17:33:57.505Z,48.77
2019-03-24T17:36:32.037Z,49.03
2019-03-24T17:39:07.415Z,50.32
2019-03-24T17:41:43.207Z,50.37
2019-03-24T17:44:20.090Z,51.16
2019-03-24T17:46:53.771Z,51.90
2019-03-24T17:49:34.936Z,51.31
2019-03-24T17:52:11.111Z,52.11
2019-03-24T17:54:44.296Z,52.57
2019-03-24T17:57:19.663Z,53.49
2019-03-24T18:00:02.827Z,53.74
2019-03-24T18:02:36.800Z,54.74
2019-03-24T18:05:18.139Z,55.83
2019-03-24T18:07:56.619Z,54.97
2019-03-24T18:10:31.060Z,56.22
2019-03-24T18:13:05.902Z,56.69
2019-03-24T18:15:42.250Z,56.62
2019-03-24T18:18:14.511Z,55.83
2019-03-24T18:20:48.532Z,56.56
2019-03-24T18:23:21.954Z,56.57
2019-03-24T18:25:54.210Z,56.03
2019-03-24T18:28:29.448Z,55.95
2019-03-24T18:31:01.786Z,56.85
2019-03-24T18:33:40.984Z,57.38
2019-03-24T18:36:13.118Z,57.35
2019-03-24T18:38:47.976Z,56.16
2019-03-24T18:41:20.115Z,54.96
2019-03-24T18:43:52.202Z,54.63
2019-03-24T18:46:24.325Z,55.86
2019-03-24T18:48:56.424Z,55.42
2019-03-24T18:51:28.743Z,53.74
2019-03-24T18:54:00.866Z,54.37
2019-03-24T18:56:32.998Z,54.70
2019-03-24T18:59:06.547Z,54.19
2019-03-24T19:01:38.667Z,54.63
2019-03-24T19:04:14.483Z,54.11
2019-03-24T19:06:46.601Z,55.21
2019-03-24T19:09:20.512Z,53.55
2019-03-24T19:11:52.631Z,53.27
2019-03-24T19:14:25.078Z,53.10
2019-03-24T19:16:57.215Z,53.20
2019-03-24T19:19:29.451Z,54.47
2019-03-24T19:22:04.263Z,53.91
2019-03-24T19:24:35.564Z,54.44
2019-03-24T19:27:07.739Z,54.16
2019-03-24T19:29:42.605Z,54.82
2019-03-24T19:32:15.385Z,55.24
2019-03-24T19:34:47.884Z,55.62
2019-03-24T19:37:20.405Z,55.94
2019-03-24T19:39:55.695Z,56.34
2019-03-24T19:42:27.940Z,57.34
2019-03-24T19:45:00.314Z,57.93
2019-03-24T19:47:33.684Z,58.84
2019-03-24T19:50:07.243Z,59.43
2019-03-24T19:52:44.578Z,59.05
2019-03-24T19:55:16.097Z,59.71
2019-03-24T19:57:48.231Z,59.92
2019-03-24T20:00:20.323Z,59.94
2019-03-24T20:02:52.665Z,60.19
2019-03-24T20:05:26.864Z,60.38
2019-03-24T20:07:59.194Z,60.36
2019-03-24T20:10:31.504Z,60.16
2019-03-24T20:13:03.655Z,60.60
2019-03-24T20:15:35.908Z,61.09
2019-03-24T20:18:08.419Z,61.48
2019-03-24T20:20:40.776Z,61.54
2019-03-24T20:23:21.550Z,61.86
2019-03-24T20:25:59.784Z,61.57
2019-03-24T20:28:32.170Z,62.68
2019-03-24T20:31:04.489Z,62.43
2019-03-24T20:33:39.436Z,62.38
2019-03-24T20:36:15.828Z,62.87
2019-03-24T20:38:57.332Z,63.48
2019-03-24T20:41:34.754Z,63.06
2019-03-24T20:44:07.067Z,63.68
2019-03-24T20:46:57.964Z,64.16
2019-03-24T20:49:34.318Z,64.42
2019-03-24T20:52:06.592Z,64.86
2019-03-24T20:54:40.178Z,64.67
2019-03-24T20:57:12.381Z,64.71
2019-03-24T20:59:44.441Z,65.59
2019-03-24T21:02:16.625Z,65.76
2019-03-24T21:04:48.890Z,65.99
2019-03-24T21:07:25.634Z,65.97
2019-03-24T21:10:01.131Z,66.08
2019-03-24T21:12:46.440Z,66.43
2019-03-24T21:15:18.626Z,67.35
2019-03-24T21:17:51.110Z,67.67
2019-03-24T21:20:23.353Z,68.18
2019-03-24T21:22:55.806Z,67.56
2019-03-24T21:25:28.725Z,67.33
2019-03-24T21:28:18.204Z,67.97
2019-03-24T21:30:50.670Z,67.87
2019-03-24T21:33:22.862Z,68.57
2019-03-24T21:35:56.869Z,68.62
2019-03-24T21:38:28.980Z,68.63
2019-03-24T21:41:01.291Z,68.83
2019-03-24T21:43:33.470Z,68.23
2019-03-24T21:46:05.657Z,67.44
2019-03-24T21:48:37.823Z,67.62
2019-03-24T21:51:09.979Z,67.93
2019-03-24T21:53:42.107Z,68.32
2019-03-24T21:56:14.485Z,68.79
2019-03-24T21:58:46.790Z,69.24
2019-03-24T22:01:22.240Z,69.47
2019-03-24T22:03:54.239Z,69.65
2019-03-24T22:06:26.278Z,69.91
2019-03-24T22:08:58.423Z,70.00
2019-03-24T22:11:30.484Z,70.38
2019-03-24T22:14:02.720Z,70.49
2019-03-24T22:16:34.791Z,69.99
2019-03-24T22:19:06.934Z,70.13
2019-03-24T22:21:39.016Z,70.12
2019-03-24T22:24:11.199Z,70.31
2019-03-24T22:26:47.536Z,70.60
2019-03-24T22:29:19.626Z,71.00
2019-03-24T22:31:51.705Z,71.46
2019-03-24T22:34:23.689Z,70.71
2019-03-24T22:36:55.722Z,71.06
2019-03-24T22:39:27.821Z,69.36
2019-03-24T22:41:59.970Z,68.06
2019-03-24T22:44:32.102Z,68.54
2019-03-24T22:47:04.187Z,68.91
2019-03-24T22:49:36.330Z,69.21
2019-03-24T22:52:08.562Z,69.22
2019-03-24T22:54:40.584Z,69.32
2019-03-24T22:57:13.087Z,69.59
2019-03-24T22:59:45.302Z,69.90
2019-03-24T23:02:26.761Z,68.90
2019-03-24T23:04:58.708Z,68.37
2019-03-24T23:07:30.719Z,68.06
2019-03-24T23:10:02.762Z,68.33
2019-03-24T23:12:34.926Z,68.32
2019-03-24T23:15:07.864Z,68.49
2019-03-24T23:17:40.067Z,68.30
2019-03-24T23:20:12.146Z,68.80
2019-03-24T23:22:44.153Z,68.52
2019-03-24T23:25:16.298Z,69.08
2019-03-24T23:27:48.408Z,68.41
2019-03-24T23:30:20.749Z,68.56
2019-03-24T23:32:52.867Z,68.46
2019-03-24T23:35:25.034Z,68.57
2019-03-24T23:37:57.528Z,68.48
2019-03-24T23:40:30.527Z,68.28
2019-03-24T23:43:02.609Z,68.66
2019-03-24T23:45:34.751Z,68.59
2019-03-24T23:48:08.094Z,68.94
2019-03-24T23:50:40.188Z,69.24
2019-03-24T23:53:12.251Z,69.99
2019-03-24T23:55:44.475Z,70.19
2019-03-24T23:58:16.582Z,70.13
